createdAt,value
2023-09-21T00:01:13.992Z,57.40
2023-09-21T00:03:41.791Z,57.50
2023-09-21T00:06:09.522Z,57.50
2023-09-21T00:08:36.598Z,57.80
2023-09-21T00:11:06.298Z,58.00
2023-09-21T00:13:33.839Z,57.20
2023-09-21T00:16:02.161Z,56.60
2023-09-21T00:18:33.095Z,56.30
2023-09-21T00:21:02.810Z,56.10
2023-09-21T00:23:31.346Z,56.30
2023-09-21T00:26:01.985Z,56.40
2023-09-21T00:28:30.181Z,56.60
2023-09-21T00:31:03.237Z,56.60
2023-09-21T00:33:31.895Z,56.80
2023-09-21T00:35:59.976Z,56.50
2023-09-21T00:38:28.222Z,56.50
2023-09-21T00:41:00.094Z,56.30
2023-09-21T00:43:27.203Z,56.50
2023-09-21T00:45:58.563Z,56.50
2023-09-21T00:48:40.155Z,57.40
2023-09-21T00:51:10.972Z,58.20
2023-09-21T00:53:41.022Z,58.90
2023-09-21T00:56:12.613Z,59.30
2023-09-21T00:58:46.370Z,59.20
2023-09-21T01:01:24.777Z,59.00
2023-09-21T01:03:54.121Z,59.00
2023-09-21T01:06:21.449Z,59.30
2023-09-21T01:08:50.046Z,59.50
2023-09-21T01:11:18.139Z,59.50
2023-09-21T01:13:45.034Z,59.60
2023-09-21T01:16:12.524Z,59.80
2023-09-21T01:18:43.578Z,59.90
2023-09-21T01:21:12.054Z,60.00
2023-09-21T01:23:39.037Z,59.90
2023-09-21T01:26:06.604Z,59.80
2023-09-21T01:28:33.505Z,59.80
2023-09-21T01:31:01.930Z,59.70
2023-09-21T01:33:29.171Z,59.70
2023-09-21T01:35:56.983Z,59.60
2023-09-21T01:38:27.188Z,59.60
2023-09-21T01:40:54.633Z,59.60
2023-09-21T01:43:21.581Z,59.70
2023-09-21T01:45:51.672Z,59.70
2023-09-21T01:48:21.777Z,59.80
2023-09-21T01:50:51.822Z,60.00
2023-09-21T01:53:22.191Z,60.00
2023-09-21T01:55:52.789Z,60.00
2023-09-21T01:58:23.576Z,60.00
2023-09-21T02:00:51.802Z,60.10
2023-09-21T02:03:23.753Z,60.20
2023-09-21T02:05:50.860Z,60.20
2023-09-21T02:08:21.229Z,60.30
2023-09-21T02:10:52.038Z,60.40
2023-09-21T02:13:19.881Z,60.70
2023-09-21T02:15:46.828Z,61.00
2023-09-21T02:18:13.911Z,61.40
2023-09-21T02:20:46.225Z,61.60
2023-09-21T02:23:14.191Z,61.60
2023-09-21T02:25:42.235Z,61.80
2023-09-21T02:28:13.417Z,61.90
2023-09-21T02:30:46.067Z,61.80
2023-09-21T02:33:13.878Z,61.80
2023-09-21T02:35:42.901Z,61.90
2023-09-21T02:38:11.198Z,61.90
2023-09-21T02:40:40.225Z,61.80
2023-09-21T02:43:10.419Z,61.80
2023-09-21T02:45:40.775Z,61.70
2023-09-21T02:48:08.838Z,61.60
2023-09-21T02:50:36.166Z,61.60
2023-09-21T02:53:09.864Z,61.50
2023-09-21T02:55:38.760Z,61.40
2023-09-21T02:58:16.897Z,61.40
2023-09-21T03:00:46.843Z,61.30
2023-09-21T03:03:17.161Z,61.30
2023-09-21T03:05:49.230Z,61.30
2023-09-21T03:08:17.803Z,61.20
2023-09-21T03:10:46.392Z,61.20
2023-09-21T03:13:19.128Z,61.20
2023-09-21T03:16:11.643Z,61.20
2023-09-21T03:18:39.147Z,61.30
2023-09-21T03:21:11.076Z,61.40
2023-09-21T03:23:38.388Z,61.50
2023-09-21T03:26:05.727Z,61.60
2023-09-21T03:28:35.323Z,61.60
2023-09-21T03:31:02.285Z,61.80
2023-09-21T03:33:29.337Z,61.70
2023-09-21T03:35:57.608Z,61.70
2023-09-21T03:38:24.574Z,61.80
2023-09-21T03:40:51.622Z,61.90
2023-09-21T03:43:20.614Z,61.90
2023-09-21T03:45:48.183Z,62.20
2023-09-21T03:48:15.379Z,62.40
2023-09-21T03:50:44.156Z,62.60
2023-09-21T03:53:12.076Z,62.80
2023-09-21T03:55:40.740Z,62.90
2023-09-21T03:58:08.752Z,63.00
2023-09-21T04:00:36.838Z,63.10
2023-09-21T04:03:12.964Z,63.00
2023-09-21T04:05:43.762Z,62.90
2023-09-21T04:08:10.954Z,63.00
2023-09-21T04:10:38.279Z,63.00
2023-09-21T04:13:06.991Z,63.20
2023-09-21T04:15:34.332Z,63.20
2023-09-21T04:18:02.956Z,63.20
2023-09-21T04:20:36.608Z,63.40
2023-09-21T04:23:04.862Z,63.40
2023-09-21T04:25:33.994Z,63.30
2023-09-21T04:28:01.281Z,63.40
2023-09-21T04:30:28.267Z,63.40
2023-09-21T04:32:56.864Z,63.40
2023-09-21T04:35:24.431Z,63.30
2023-09-21T04:37:59.833Z,63.30
2023-09-21T04:40:27.761Z,63.30
2023-09-21T04:42:55.955Z,63.30
2023-09-21T04:45:23.597Z,63.30
2023-09-21T04:47:53.762Z,63.30
2023-09-21T04:50:20.776Z,63.30
2023-09-21T04:52:51.223Z,63.30
2023-09-21T04:55:18.546Z,63.30
2023-09-21T04:57:46.203Z,63.40
2023-09-21T05:00:15.841Z,63.40
2023-09-21T05:02:44.382Z,63.30
2023-09-21T05:05:12.324Z,63.20
2023-09-21T05:07:39.618Z,63.20
2023-09-21T05:10:08.608Z,63.30
2023-09-21T05:12:36.252Z,63.10
2023-09-21T05:15:08.621Z,62.90
2023-09-21T05:17:39.371Z,62.90
2023-09-21T05:20:10.863Z,62.90
2023-09-21T05:22:41.310Z,62.90
2023-09-21T05:25:09.144Z,62.90
2023-09-21T05:27:40.153Z,62.90
2023-09-21T05:30:10.486Z,62.90
2023-09-21T05:32:39.337Z,63.00
2023-09-21T05:35:09.180Z,63.10
2023-09-21T05:37:37.542Z,63.10
2023-09-21T05:40:09.062Z,63.00
2023-09-21T05:42:36.569Z,62.90
2023-09-21T05:45:04.431Z,63.00
2023-09-21T05:47:31.773Z,62.90
2023-09-21T05:49:58.766Z,62.90
2023-09-21T05:52:27.077Z,62.90
2023-09-21T05:54:54.285Z,62.90
2023-09-21T05:57:22.759Z,62.90
2023-09-21T05:59:51.606Z,63.00
2023-09-21T06:02:18.663Z,63.10
2023-09-21T06:04:45.822Z,63.10
2023-09-21T06:07:12.891Z,63.20
2023-09-21T06:09:40.431Z,63.30
2023-09-21T06:12:08.975Z,63.40
2023-09-21T06:14:39.263Z,63.50
2023-09-21T06:17:07.427Z,63.50
2023-09-21T06:19:35.230Z,63.60
2023-09-21T06:22:02.157Z,63.80
2023-09-21T06:24:29.129Z,64.20
2023-09-21T06:26:56.229Z,64.20
2023-09-21T06:29:24.326Z,64.30
2023-09-21T06:34:26.071Z,64.70
2023-09-21T06:36:54.286Z,64.80
2023-09-21T06:39:22.893Z,65.00
2023-09-21T06:41:50.051Z,65.00
2023-09-21T06:44:19.473Z,65.10
2023-09-21T06:46:47.096Z,65.10
2023-09-21T06:49:14.310Z,65.10
2023-09-21T06:51:41.346Z,65.10
2023-09-21T06:54:08.422Z,65.10
2023-09-21T06:56:35.570Z,64.90
2023-09-21T06:59:02.442Z,64.90
2023-09-21T07:01:30.228Z,64.70
2023-09-21T07:03:57.285Z,64.60
2023-09-21T07:06:24.387Z,64.50
2023-09-21T07:08:52.118Z,64.30
2023-09-21T07:11:22.122Z,64.10
2023-09-21T07:13:49.087Z,64.20
2023-09-21T07:16:17.188Z,64.10
2023-09-21T07:18:47.634Z,64.40
2023-09-21T07:21:15.400Z,63.60
2023-09-21T07:23:42.987Z,63.60
2023-09-21T07:26:10.002Z,63.10
2023-09-21T07:28:36.919Z,62.90
2023-09-21T07:31:04.560Z,62.70
2023-09-21T07:33:32.195Z,61.90
2023-09-21T07:35:59.504Z,61.60
2023-09-21T07:38:28.565Z,61.00
2023-09-21T07:40:55.675Z,60.90
2023-09-21T07:43:22.684Z,60.00
2023-09-21T07:45:53.443Z,60.10
2023-09-21T07:48:21.773Z,59.80
2023-09-21T07:50:50.971Z,59.80
2023-09-21T07:53:18.163Z,60.10
2023-09-21T07:55:45.205Z,60.30
2023-09-21T07:58:12.084Z,60.50
2023-09-21T08:00:38.965Z,60.60
2023-09-21T08:03:06.062Z,60.80
2023-09-21T08:05:33.913Z,60.70
2023-09-21T08:08:01.304Z,60.60
2023-09-21T08:10:28.979Z,60.50
2023-09-21T08:12:55.861Z,60.00
2023-09-21T08:15:23.023Z,60.10
2023-09-21T08:17:50.046Z,60.30
2023-09-21T08:20:17.236Z,60.00
2023-09-21T08:22:49.192Z,59.80
2023-09-21T08:25:16.596Z,59.60
2023-09-21T08:27:43.772Z,59.40
2023-09-21T08:30:14.194Z,59.50
2023-09-21T08:32:41.356Z,59.40
2023-09-21T08:35:09.273Z,59.00
2023-09-21T08:37:36.370Z,58.70
2023-09-21T08:40:07.499Z,58.70
2023-09-21T08:42:37.564Z,58.00
2023-09-21T08:45:11.120Z,56.80
2023-09-21T08:47:41.222Z,56.50
2023-09-21T08:50:10.399Z,56.50
2023-09-21T08:52:37.831Z,56.20
2023-09-21T08:55:05.310Z,55.40
2023-09-21T08:57:32.917Z,55.20
2023-09-21T09:00:10.122Z,54.80
2023-09-21T09:02:37.591Z,54.10
2023-09-21T09:05:09.125Z,53.90
2023-09-21T09:07:42.764Z,53.20
2023-09-21T09:10:13.595Z,53.20
2023-09-21T09:12:42.430Z,52.20
2023-09-21T09:15:11.674Z,51.80
2023-09-21T09:17:41.437Z,51.50
2023-09-21T09:20:09.322Z,51.00
2023-09-21T09:22:36.629Z,51.60
2023-09-21T09:25:08.945Z,51.60
2023-09-21T09:27:36.383Z,51.60
2023-09-21T09:30:10.543Z,51.40
2023-09-21T09:32:45.632Z,51.30
2023-09-21T09:35:16.311Z,49.90
2023-09-21T09:37:44.582Z,50.70
2023-09-21T09:40:15.949Z,50.10
2023-09-21T09:42:44.711Z,50.40
2023-09-21T09:45:20.414Z,50.20
2023-09-21T09:47:57.345Z,50.00
2023-09-21T09:50:34.697Z,50.70
2023-09-21T09:53:12.237Z,50.10
2023-09-21T09:55:43.587Z,50.00
2023-09-21T09:58:15.111Z,49.00
2023-09-21T10:00:46.675Z,48.40
2023-09-21T10:03:15.171Z,47.50
2023-09-21T10:05:45.276Z,47.20
2023-09-21T10:08:12.380Z,47.30
2023-09-21T10:10:47.329Z,47.40
2023-09-21T10:13:14.885Z,46.90
2023-09-21T10:15:42.836Z,46.50
2023-09-21T10:18:10.578Z,46.40
2023-09-21T10:20:38.804Z,46.70
2023-09-21T10:23:13.026Z,46.80
2023-09-21T10:25:42.631Z,46.70
2023-09-21T10:28:44.228Z,47.20
2023-09-21T10:31:24.370Z,47.30
2023-09-21T10:33:52.540Z,46.60
2023-09-21T10:36:22.242Z,46.40
2023-09-21T10:39:07.670Z,46.90
2023-09-21T10:41:35.254Z,46.60
2023-09-21T10:44:04.049Z,46.30
2023-09-21T10:46:38.976Z,46.40
2023-09-21T10:49:06.121Z,46.30
2023-09-21T10:51:34.639Z,46.10
2023-09-21T10:54:06.772Z,46.30
2023-09-21T10:56:35.705Z,46.10
2023-09-21T10:59:03.104Z,46.20
2023-09-21T11:01:30.847Z,46.40
2023-09-21T11:03:59.762Z,46.20
2023-09-21T11:06:27.838Z,45.70
2023-09-21T11:08:56.730Z,45.30
2023-09-21T11:11:26.465Z,45.00
2023-09-21T11:13:53.814Z,44.80
2023-09-21T11:16:21.218Z,45.00
2023-09-21T11:18:54.927Z,45.30
2023-09-21T11:21:23.442Z,43.70
2023-09-21T11:23:51.121Z,44.10
2023-09-21T11:26:18.593Z,44.30
2023-09-21T11:28:45.831Z,44.00
2023-09-21T11:31:16.757Z,44.10
2023-09-21T11:33:43.883Z,44.20
2023-09-21T11:36:10.903Z,43.70
2023-09-21T11:38:38.471Z,43.70
2023-09-21T11:41:05.996Z,43.40
2023-09-21T11:43:33.620Z,43.00
2023-09-21T11:46:04.767Z,42.90
2023-09-21T11:48:34.962Z,43.10
2023-09-21T11:51:06.644Z,43.50
2023-09-21T11:53:33.948Z,44.00
2023-09-21T11:56:01.428Z,43.40
2023-09-21T11:58:32.988Z,42.90
2023-09-21T12:01:08.889Z,43.40
2023-09-21T12:03:38.950Z,43.00
2023-09-21T12:06:06.602Z,43.50
2023-09-21T12:08:33.872Z,43.60
2023-09-21T12:11:00.999Z,43.60
2023-09-21T12:13:28.093Z,43.60
2023-09-21T12:15:58.610Z,43.20
2023-09-21T12:18:28.398Z,43.20
2023-09-21T12:20:58.931Z,42.50
2023-09-21T12:23:26.451Z,42.40
2023-09-21T12:25:54.254Z,42.50
2023-09-21T12:28:21.325Z,41.80
2023-09-21T12:30:50.110Z,42.40
2023-09-21T12:33:34.658Z,42.30
2023-09-21T12:36:06.577Z,42.50
2023-09-21T12:38:35.929Z,42.70
2023-09-21T12:41:03.117Z,41.70
2023-09-21T12:43:30.544Z,41.00
2023-09-21T12:45:58.688Z,40.70
2023-09-21T12:48:26.234Z,40.30
2023-09-21T12:50:53.503Z,40.00
2023-09-21T12:53:20.434Z,40.30
2023-09-21T12:55:47.486Z,40.10
2023-09-21T12:58:14.442Z,40.50
2023-09-21T13:00:42.244Z,40.50
2023-09-21T13:03:11.076Z,40.90
2023-09-21T13:05:39.728Z,40.60
2023-09-21T13:08:07.470Z,41.20
2023-09-21T13:10:34.800Z,40.20
2023-09-21T13:13:02.472Z,40.40
2023-09-21T13:15:31.584Z,40.80
2023-09-21T13:17:59.409Z,40.70
2023-09-21T13:20:26.824Z,40.50
2023-09-21T13:22:53.881Z,40.50
2023-09-21T13:25:20.895Z,40.80
2023-09-21T13:27:49.324Z,40.70
2023-09-21T13:30:19.427Z,40.90
2023-09-21T13:32:48.457Z,41.10
2023-09-21T13:35:17.110Z,41.30
2023-09-21T13:37:44.102Z,41.40
2023-09-21T13:40:11.500Z,41.70
2023-09-21T13:42:42.612Z,41.60
2023-09-21T13:45:11.188Z,42.00
2023-09-21T13:47:40.936Z,41.90
2023-09-21T13:50:09.565Z,41.60
2023-09-21T13:52:38.020Z,41.50
2023-09-21T13:55:17.384Z,41.50
2023-09-21T13:57:46.757Z,41.50
2023-09-21T14:00:15.809Z,41.80
2023-09-21T14:02:48.138Z,42.10
2023-09-21T14:05:17.288Z,42.20
2023-09-21T14:07:44.321Z,42.20
2023-09-21T14:10:11.600Z,42.20
2023-09-21T14:12:38.715Z,41.90
2023-09-21T14:15:07.024Z,41.70
2023-09-21T14:17:35.618Z,41.80
2023-09-21T14:20:04.406Z,41.60
2023-09-21T14:22:31.518Z,41.70
2023-09-21T14:24:58.454Z,42.00
2023-09-21T14:27:25.863Z,41.90
2023-09-21T14:29:52.977Z,42.00
2023-09-21T14:32:19.938Z,41.90
2023-09-21T14:34:47.042Z,42.00
2023-09-21T14:37:14.016Z,42.00
2023-09-21T14:39:41.409Z,42.10
2023-09-21T14:42:08.584Z,42.20
2023-09-21T14:44:35.535Z,42.30
2023-09-21T14:47:04.310Z,42.20
2023-09-21T14:49:31.486Z,43.50
2023-09-21T14:51:59.138Z,44.00
2023-09-21T14:54:26.091Z,44.00
2023-09-21T14:56:53.044Z,44.50
2023-09-21T14:59:20.008Z,44.60
2023-09-21T15:01:47.106Z,44.30
2023-09-21T15:04:14.451Z,44.50
2023-09-21T15:06:41.623Z,44.80
2023-09-21T15:09:10.544Z,45.50
2023-09-21T15:11:39.334Z,45.40
2023-09-21T15:14:06.494Z,44.60
2023-09-21T15:16:33.667Z,44.00
2023-09-21T15:19:01.331Z,43.00
2023-09-21T15:21:28.629Z,42.00
2023-09-21T15:23:55.641Z,41.00
2023-09-21T15:26:22.659Z,40.30
2023-09-21T15:28:49.637Z,40.80
2023-09-21T15:31:18.005Z,39.90
2023-09-21T15:33:45.136Z,40.10
2023-09-21T15:36:12.294Z,39.90
2023-09-21T15:38:39.254Z,40.00
2023-09-21T15:41:06.247Z,40.00
2023-09-21T15:43:33.204Z,40.20
2023-09-21T15:46:00.490Z,40.50
2023-09-21T15:48:33.393Z,40.50
2023-09-21T15:51:04.268Z,40.60
2023-09-21T15:53:31.318Z,41.00
2023-09-21T15:55:58.300Z,41.40
2023-09-21T15:58:25.907Z,41.50
2023-09-21T16:00:53.449Z,41.90
2023-09-21T16:03:21.915Z,42.00
2023-09-21T16:05:49.685Z,42.30
2023-09-21T16:08:16.849Z,42.60
2023-09-21T16:10:44.663Z,42.80
2023-09-21T16:13:11.851Z,43.10
2023-09-21T16:15:41.030Z,43.50
2023-09-21T16:18:09.136Z,43.50
2023-09-21T16:20:37.077Z,43.80
2023-09-21T16:23:04.417Z,43.90
2023-09-21T16:25:31.454Z,44.10
2023-09-21T16:27:58.595Z,44.20
2023-09-21T16:30:25.984Z,44.40
2023-09-21T16:32:55.697Z,44.50
2023-09-21T16:35:22.866Z,44.60
2023-09-21T16:37:51.089Z,44.60
2023-09-21T16:40:19.894Z,44.80
2023-09-21T16:42:47.602Z,45.00
2023-09-21T16:45:15.553Z,45.10
2023-09-21T16:47:43.287Z,45.20
2023-09-21T16:50:11.073Z,45.40
2023-09-21T16:52:38.275Z,45.60
2023-09-21T16:55:05.949Z,45.70
2023-09-21T16:57:33.425Z,46.00
2023-09-21T17:00:00.651Z,46.10
2023-09-21T17:02:28.289Z,46.30
2023-09-21T17:04:55.622Z,46.40
2023-09-21T17:07:22.578Z,46.30
2023-09-21T17:09:49.762Z,46.30
2023-09-21T17:12:17.350Z,46.30
2023-09-21T17:14:44.703Z,46.30
2023-09-21T17:17:11.678Z,46.40
2023-09-21T17:19:38.591Z,46.40
2023-09-21T17:22:05.793Z,46.60
2023-09-21T17:24:32.912Z,46.60
2023-09-21T17:27:00.327Z,46.70
2023-09-21T17:29:30.197Z,46.70
2023-09-21T17:31:57.737Z,46.90
2023-09-21T17:34:24.696Z,47.00
2023-09-21T17:36:51.681Z,47.10
2023-09-21T17:39:18.728Z,47.40
2023-09-21T17:41:46.005Z,47.60
2023-09-21T17:44:12.924Z,47.70
2023-09-21T17:46:40.115Z,47.80
2023-09-21T17:49:07.246Z,48.00
2023-09-21T17:51:34.535Z,48.10
2023-09-21T17:54:08.113Z,48.20
2023-09-21T17:56:36.830Z,48.30
2023-09-21T17:59:04.821Z,48.40
2023-09-21T18:01:32.726Z,48.30
2023-09-21T18:03:59.991Z,48.50
2023-09-21T18:06:27.063Z,48.60
2023-09-21T18:08:53.996Z,48.70
2023-09-21T18:11:21.081Z,48.80
2023-09-21T18:13:49.355Z,48.90
2023-09-21T18:16:17.894Z,49.00
2023-09-21T18:18:47.796Z,49.20
2023-09-21T18:21:14.996Z,49.30
2023-09-21T18:23:42.702Z,49.40
2023-09-21T18:26:09.687Z,49.50
2023-09-21T18:28:36.747Z,49.60
2023-09-21T18:31:03.841Z,49.50
2023-09-21T18:33:30.785Z,49.70
2023-09-21T18:35:57.792Z,50.40
2023-09-21T18:38:24.829Z,49.80
2023-09-21T18:40:53.512Z,49.90
2023-09-21T18:43:20.479Z,50.00
2023-09-21T18:45:47.609Z,50.10
2023-09-21T18:48:14.895Z,50.20
2023-09-21T18:50:43.055Z,50.30
2023-09-21T18:53:10.291Z,50.30
2023-09-21T18:55:37.805Z,50.50
2023-09-21T18:58:07.164Z,50.40
2023-09-21T19:00:37.677Z,50.60
2023-09-21T19:03:07.280Z,50.60
2023-09-21T19:05:34.393Z,50.70
2023-09-21T19:08:01.370Z,50.70
2023-09-21T19:10:28.485Z,51.00
2023-09-21T19:12:55.501Z,51.20
2023-09-21T19:15:22.539Z,51.10
2023-09-21T19:17:49.574Z,51.20
2023-09-21T19:20:16.916Z,51.30
2023-09-21T19:22:48.584Z,51.40
2023-09-21T19:25:15.700Z,51.70
2023-09-21T19:27:42.747Z,52.10
2023-09-21T19:30:10.495Z,52.90
2023-09-21T19:32:37.826Z,52.40
2023-09-21T19:35:06.025Z,52.50
2023-09-21T19:37:33.180Z,52.60
2023-09-21T19:40:00.211Z,52.70
2023-09-21T19:42:28.192Z,52.80
2023-09-21T19:44:56.484Z,52.90
2023-09-21T19:47:23.421Z,53.00
2023-09-21T19:49:51.789Z,53.10
2023-09-21T19:52:18.817Z,53.20
2023-09-21T19:54:45.810Z,53.20
2023-09-21T19:57:12.814Z,53.40
2023-09-21T19:59:39.879Z,53.40
2023-09-21T20:02:08.034Z,53.50
2023-09-21T20:04:35.272Z,54.20
2023-09-21T20:07:02.420Z,53.50
2023-09-21T20:09:30.415Z,53.70
2023-09-21T20:11:57.427Z,53.90
2023-09-21T20:14:24.504Z,53.80
2023-09-21T20:16:51.553Z,53.90
2023-09-21T20:19:18.610Z,53.90
2023-09-21T20:21:45.796Z,54.00
2023-09-21T20:24:12.914Z,54.00
2023-09-21T20:26:39.867Z,54.10
2023-09-21T20:29:08.871Z,54.10
2023-09-21T20:31:36.080Z,54.10
2023-09-21T20:34:04.239Z,54.20
2023-09-21T20:36:31.552Z,54.30
2023-09-21T20:38:58.600Z,54.20
2023-09-21T20:41:25.904Z,54.10
2023-09-21T20:43:53.081Z,54.30
2023-09-21T20:46:21.983Z,54.10
2023-09-21T20:48:49.296Z,54.10
2023-09-21T20:51:16.690Z,54.20
2023-09-21T20:53:44.179Z,54.10
2023-09-21T20:56:12.628Z,54.10
2023-09-21T20:58:40.340Z,54.00
2023-09-21T21:01:07.402Z,54.10
2023-09-21T21:03:34.531Z,54.20
2023-09-21T21:06:01.652Z,54.20
2023-09-21T21:08:28.696Z,54.30
2023-09-21T21:10:55.742Z,54.40
2023-09-21T21:13:22.907Z,54.50
2023-09-21T21:15:49.885Z,54.60
2023-09-21T21:18:17.008Z,55.00
2023-09-21T21:20:44.365Z,55.10
2023-09-21T21:23:11.304Z,55.40
2023-09-21T21:25:38.215Z,55.40
2023-09-21T21:28:05.338Z,55.60
2023-09-21T21:30:33.745Z,55.70
2023-09-21T21:33:01.045Z,55.90
2023-09-21T21:35:28.076Z,56.00
2023-09-21T21:37:54.944Z,56.00
2023-09-21T21:40:21.853Z,56.20
2023-09-21T21:42:48.942Z,56.30
2023-09-21T21:45:15.955Z,56.60
2023-09-21T21:47:42.883Z,56.50
2023-09-21T21:50:10.409Z,56.60
2023-09-21T21:52:37.429Z,56.60
2023-09-21T21:55:05.138Z,56.90
2023-09-21T21:57:32.084Z,56.90
2023-09-21T21:59:59.995Z,57.00
2023-09-21T22:02:26.983Z,57.10
2023-09-21T22:04:54.013Z,57.10
2023-09-21T22:07:22.120Z,57.10
2023-09-21T22:09:50.785Z,57.10
2023-09-21T22:12:19.624Z,56.90
2023-09-21T22:14:46.651Z,56.90
2023-09-21T22:17:13.595Z,56.70
2023-09-21T22:19:40.546Z,56.70
2023-09-21T22:22:07.488Z,56.70
2023-09-21T22:24:34.839Z,56.70
2023-09-21T22:27:01.813Z,56.60
2023-09-21T22:29:28.778Z,56.70
2023-09-21T22:31:55.670Z,57.10
2023-09-21T22:34:22.600Z,57.20
2023-09-21T22:36:49.565Z,57.40
2023-09-21T22:39:17.759Z,57.70
2023-09-21T22:41:44.964Z,57.80
2023-09-21T22:44:11.870Z,58.10
2023-09-21T22:46:38.886Z,58.30
2023-09-21T22:49:05.939Z,58.30
2023-09-21T22:51:32.916Z,58.30
2023-09-21T22:54:00.851Z,58.70
2023-09-21T22:56:27.872Z,58.70
2023-09-21T22:58:55.040Z,59.00
2023-09-21T23:01:21.976Z,59.30
2023-09-21T23:03:49.262Z,59.10
2023-09-21T23:06:17.514Z,59.40
2023-09-21T23:08:45.600Z,59.50
2023-09-21T23:11:13.290Z,59.70
2023-09-21T23:13:40.752Z,59.70
2023-09-21T23:16:11.355Z,59.80
2023-09-21T23:18:38.727Z,60.00
2023-09-21T23:21:07.180Z,60.20
2023-09-21T23:23:35.148Z,60.30
2023-09-21T23:26:02.980Z,60.30
2023-09-21T23:28:29.881Z,60.40
2023-09-21T23:30:58.195Z,60.50
2023-09-21T23:33:25.200Z,60.80
2023-09-21T23:35:52.143Z,60.90
2023-09-21T23:38:20.789Z,61.00
2023-09-21T23:40:48.150Z,61.20
2023-09-21T23:43:15.161Z,61.10
2023-09-21T23:45:42.096Z,61.20
2023-09-21T23:48:09.305Z,61.30
2023-09-21T23:50:36.269Z,61.50
2023-09-21T23:53:03.394Z,61.50
2023-09-21T23:55:30.514Z,61.60
2023-09-21T23:57:57.516Z,61.80
